Thargomindah, Australia
Current Conditions -  °F | °C
As of 5:00 AM on Saturday 01 Nov 2014 (Local Time) from YBCV Reporting Station
Clear Clear  
Wind Chill: 81°   Ceiling: Unl
Heat Index: 81°   Visibility: 6mi
Dew Point: 54°   Wind: 17mph
Humidity: 39%   Direction: 360°N
Pressure: 29.83"   Gusts: NA
Location:  28°S, 143.82°E
Report Text: YBCV 311900Z AUTO 36015KT 9999 // NCD 27/12 Q1010
Loading
Personal Weather Stations






























Interactive Weather Map
Tropical Storm Tracking
New forecast layout! Learn more

10-Day Weather Forecast

Advertisements
Track Severe Weather on mobile